createdAt,value
2017-11-18T00:00:41.070Z,76.42
2017-11-18T00:01:41.092Z,76.84
2017-11-18T00:02:41.203Z,76.75
2017-11-18T00:03:41.114Z,76.27
2017-11-18T00:04:41.142Z,76.75
2017-11-18T00:05:41.147Z,76.46
2017-11-18T00:06:40.906Z,76.46
2017-11-18T00:07:41.236Z,77.41
2017-11-18T00:08:41.232Z,76.65
2017-11-18T00:09:41.215Z,76.08
2017-11-18T00:10:41.226Z,76.46
2017-11-18T00:11:41.024Z,75.99
2017-11-18T00:12:41.261Z,76.37
2017-11-18T00:13:41.286Z,76.18
2017-11-18T00:14:41.293Z,76.56
2017-11-18T00:15:41.307Z,76.08
2017-11-18T00:16:41.323Z,75.89
2017-11-18T00:17:41.079Z,77.12
2017-11-18T00:18:41.354Z,77.66
2017-11-18T00:19:41.379Z,77.94
2017-11-18T00:20:41.382Z,78.13
2017-11-18T00:21:41.144Z,78.23
2017-11-18T00:22:41.468Z,78.42
2017-11-18T00:23:41.632Z,78.61
2017-11-18T00:24:41.448Z,78.99
2017-11-18T00:25:41.467Z,78.8
2017-11-18T00:26:41.221Z,79.17
2017-11-18T00:27:41.241Z,78.99
2017-11-18T00:28:41.251Z,79.08
2017-11-18T00:29:41.267Z,78.89
2017-11-18T00:30:41.283Z,79.17
2017-11-18T00:31:41.562Z,79.08
2017-11-18T00:32:41.569Z,78.99
2017-11-18T00:33:41.586Z,78.99
2017-11-18T00:34:41.601Z,78.99
2017-11-18T00:35:41.616Z,78.61
2017-11-18T00:36:41.641Z,78.7
2017-11-18T00:37:41.442Z,78.51
2017-11-18T00:38:41.407Z,78.13
2017-11-18T00:39:41.679Z,77.75
2017-11-18T00:40:41.696Z,78.32
2017-11-18T00:41:41.709Z,78.13
2017-11-18T00:42:41.745Z,78.61
2017-11-18T00:43:41.484Z,78.61
2017-11-18T00:44:41.756Z,78.13
2017-11-18T00:45:41.774Z,78.7
2017-11-18T00:46:41.790Z,79.17
2017-11-18T00:47:41.804Z,79.17
2017-11-18T00:48:41.834Z,78.99
2017-11-18T00:49:41.832Z,78.51
2017-11-18T00:50:41.852Z,78.51
2017-11-18T00:51:41.868Z,78.13
2017-11-18T00:52:41.672Z,78.51
2017-11-18T00:53:41.894Z,78.23
2017-11-18T00:54:41.909Z,78.23
2017-11-18T00:55:41.670Z,78.23
2017-11-18T00:56:41.950Z,78.7
2017-11-18T00:57:41.957Z,78.32
2017-11-18T00:58:41.991Z,78.32
2017-11-18T00:59:41.989Z,77.84
2017-11-18T01:00:42.004Z,77.75
2017-11-18T01:01:42.020Z,77.09
2017-11-18T01:02:42.037Z,76.99
2017-11-18T01:03:42.055Z,77.18
2017-11-18T01:04:42.068Z,77.56
2017-11-18T01:05:42.089Z,77.37
2017-11-18T01:06:41.840Z,76.99
2017-11-18T01:07:42.166Z,77.18
2017-11-18T01:08:42.137Z,77.28
2017-11-18T01:09:41.889Z,77.18
2017-11-18T01:10:42.182Z,77.09
2017-11-18T01:11:42.176Z,77.84
2017-11-18T01:12:42.189Z,78.42
2017-11-18T01:13:42.208Z,78.47
2017-11-18T01:14:42.222Z,78.66
2017-11-18T01:15:42.239Z,78.7
2017-11-18T01:16:42.264Z,78.23
2017-11-18T01:17:42.269Z,77.94
2017-11-18T01:18:42.283Z,78.51
2017-11-18T01:19:42.301Z,77.75
2017-11-18T01:20:42.056Z,78.32
2017-11-18T01:21:42.335Z,78.03
2017-11-18T01:22:42.449Z,78.32
2017-11-18T01:23:42.364Z,79.04
2017-11-18T01:24:42.119Z,79.08
2017-11-18T01:25:42.396Z,78.95
2017-11-18T01:26:42.405Z,79.14
2017-11-18T01:27:42.165Z,79.23
2017-11-18T01:28:42.436Z,79.36
2017-11-18T01:29:42.452Z,78.99
2017-11-18T01:30:42.471Z,79.36
2017-11-18T01:31:42.506Z,79.17
2017-11-18T01:32:42.248Z,78.8
2017-11-18T01:33:42.521Z,78.42
2017-11-18T01:34:42.529Z,78.03
2017-11-18T01:35:42.289Z,78.32
2017-11-18T01:36:42.308Z,78.42
2017-11-18T01:37:42.624Z,78.7
2017-11-18T01:38:42.611Z,78.51
2017-11-18T01:39:42.607Z,78.7
2017-11-18T01:40:42.626Z,78.32
2017-11-18T01:41:42.638Z,78.51
2017-11-18T01:42:42.651Z,78.32
2017-11-18T01:43:42.412Z,79.08
2017-11-18T01:44:42.682Z,79.17
2017-11-18T01:45:42.703Z,79.36
2017-11-18T01:46:42.714Z,79.27
2017-11-18T01:47:42.736Z,78.7
2017-11-18T01:48:42.488Z,78.8
2017-11-18T01:49:42.777Z,79.17
2017-11-18T01:50:42.781Z,79.36
2017-11-18T01:51:42.793Z,78.99
2017-11-18T01:52:42.809Z,79.55
2017-11-18T01:53:42.833Z,79.46
2017-11-18T01:54:42.837Z,79.84
2017-11-18T01:55:42.856Z,79.36
2017-11-18T01:56:42.663Z,79.17
2017-11-18T01:57:42.629Z,79.27
2017-11-18T01:58:42.898Z,79.17
2017-11-18T01:59:42.916Z,78.89
2017-11-18T02:00:42.934Z,78.99
2017-11-18T02:01:42.953Z,78.89
2017-11-18T02:02:42.705Z,79.17
2017-11-18T02:03:42.979Z,79.27
2017-11-18T02:04:42.996Z,79.27
2017-11-18T02:05:42.751Z,79.17
2017-11-18T02:06:43.025Z,79.55
2017-11-18T02:07:43.140Z,79.55
2017-11-18T02:08:43.062Z,79.55
2017-11-18T02:09:42.813Z,79.65
2017-11-18T02:10:43.085Z,80.13
2017-11-18T02:11:43.136Z,79.94
2017-11-18T02:12:43.115Z,80.03
2017-11-18T02:13:43.128Z,80.13
2017-11-18T02:14:43.147Z,80.13
2017-11-18T02:15:43.175Z,80.32
2017-11-18T02:16:42.920Z,80.22
2017-11-18T02:17:43.193Z,80.22
2017-11-18T02:18:43.210Z,80.13
2017-11-18T02:19:43.230Z,80.22
2017-11-18T02:20:42.979Z,79.94
2017-11-18T02:21:43.255Z,80.69
2017-11-18T02:22:43.271Z,80.79
2017-11-18T02:23:43.315Z,80.88
2017-11-18T02:24:43.309Z,80.6
2017-11-18T02:25:43.057Z,80.79
2017-11-18T02:26:43.344Z,80.88
2017-11-18T02:27:43.138Z,80.79
2017-11-18T02:28:43.378Z,80.6
2017-11-18T02:29:43.411Z,80.69
2017-11-18T02:30:43.404Z,80.6
2017-11-18T02:31:43.163Z,79.94
2017-11-18T02:32:43.445Z,80.03
2017-11-18T02:33:43.468Z,80.6
2017-11-18T02:34:43.463Z,80.51
2017-11-18T02:35:43.472Z,80.6
2017-11-18T02:36:43.227Z,80.69
2017-11-18T02:37:43.519Z,80.32
2017-11-18T02:38:43.519Z,80.41
2017-11-18T02:39:43.277Z,80.41
2017-11-18T02:40:43.546Z,80.41
2017-11-18T02:41:43.575Z,80.51
2017-11-18T02:42:43.583Z,80.79
2017-11-18T02:43:43.594Z,80.69
2017-11-18T02:44:43.348Z,80.69
2017-11-18T02:45:43.673Z,80.88
2017-11-18T02:46:43.655Z,80.88
2017-11-18T02:47:43.649Z,81.07
2017-11-18T02:48:43.411Z,81.07
2017-11-18T02:49:43.425Z,81.17
2017-11-18T02:50:43.436Z,81.07
2017-11-18T02:51:43.710Z,81.04
2017-11-18T02:52:43.746Z,81.07
2017-11-18T02:53:43.486Z,81.07
2017-11-18T02:54:43.760Z,80.98
2017-11-18T02:55:43.783Z,80.88
2017-11-18T02:56:43.797Z,80.69
2017-11-18T02:57:43.805Z,80.69
2017-11-18T02:58:43.820Z,80.69
2017-11-18T02:59:43.831Z,80.6
2017-11-18T03:00:43.845Z,80.88
2017-11-18T03:01:43.865Z,81.26
2017-11-18T03:02:43.891Z,81.17
2017-11-18T03:03:43.890Z,81.84
2017-11-18T03:04:43.918Z,81.79
2017-11-18T03:05:43.921Z,81.74
2017-11-18T03:06:43.937Z,81.74
2017-11-18T03:07:43.956Z,80.98
2017-11-18T03:08:43.983Z,81.07
2017-11-18T03:09:43.983Z,81.07
2017-11-18T03:10:43.998Z,81.07
2017-11-18T03:11:43.756Z,81.65
2017-11-18T03:12:44.032Z,81.84
2017-11-18T03:13:44.042Z,80.98
2017-11-18T03:14:44.174Z,81.07
2017-11-18T03:15:44.072Z,81.26
2017-11-18T03:16:44.088Z,80.98
2017-11-18T03:17:44.102Z,81.17
2017-11-18T03:18:44.118Z,81.17
2017-11-18T03:19:44.185Z,80.98
2017-11-18T03:20:43.891Z,81.17
2017-11-18T03:21:43.904Z,81.26
2017-11-18T03:22:44.193Z,81.26
2017-11-18T03:23:44.197Z,81.17
2017-11-18T03:24:44.209Z,81.26
2017-11-18T03:25:44.225Z,81.26
2017-11-18T03:26:44.246Z,81.07
2017-11-18T03:27:44.258Z,80.98
2017-11-18T03:28:44.010Z,81.07
2017-11-18T03:29:44.286Z,81.07
2017-11-18T03:30:44.044Z,81.07
2017-11-18T03:31:44.323Z,80.88
2017-11-18T03:32:44.342Z,80.69
2017-11-18T03:33:44.554Z,81.17
2017-11-18T03:34:44.102Z,81.07
2017-11-18T03:35:44.378Z,80.88
2017-11-18T03:36:44.439Z,80.69
2017-11-18T03:37:44.148Z,80.6
2017-11-18T03:38:44.162Z,80.98
2017-11-18T03:39:44.447Z,80.79
2017-11-18T03:40:44.461Z,80.41
2017-11-18T03:41:44.209Z,80.88
2017-11-18T03:42:44.484Z,80.69
2017-11-18T03:43:44.497Z,80.88
2017-11-18T03:44:44.520Z,80.79
2017-11-18T03:45:44.535Z,80.41
2017-11-18T03:46:44.540Z,80.32
2017-11-18T03:47:44.299Z,80.13
2017-11-18T03:48:44.313Z,80.13
2017-11-18T03:49:44.329Z,79.94
2017-11-18T03:50:44.598Z,80.13
2017-11-18T03:51:44.615Z,80.41
2017-11-18T03:52:44.835Z,79.94
2017-11-18T03:53:44.658Z,80.22
2017-11-18T03:54:44.663Z,80.6
2017-11-18T03:55:44.717Z,80.69
2017-11-18T03:56:44.695Z,81.26
2017-11-18T03:57:44.452Z,81.74
2017-11-18T03:58:44.722Z,81.88
2017-11-18T03:59:44.740Z,81.51
2017-11-18T04:00:44.781Z,81.88
2017-11-18T04:01:44.768Z,82.46
2017-11-18T04:02:44.785Z,82.65
2017-11-18T04:03:44.807Z,82.27
2017-11-18T04:04:44.557Z,82.55
2017-11-18T04:05:44.590Z,82.55
2017-11-18T04:06:44.842Z,82.46
2017-11-18T04:07:44.861Z,82.08
2017-11-18T04:08:44.882Z,82.27
2017-11-18T04:09:44.947Z,82.17
2017-11-18T04:10:44.912Z,82.36
2017-11-18T04:11:44.921Z,82.27
2017-11-18T04:12:44.679Z,82.08
2017-11-18T04:13:44.952Z,82.36
2017-11-18T04:14:44.704Z,81.98
2017-11-18T04:15:44.978Z,82.46
2017-11-18T04:16:44.735Z,82.36
2017-11-18T04:17:45.009Z,82.46
2017-11-18T04:18:44.765Z,82.36
2017-11-18T04:19:45.038Z,82.27
2017-11-18T04:20:45.054Z,82.27
2017-11-18T04:21:45.080Z,82.65
2017-11-18T04:22:45.090Z,82.84
2017-11-18T04:23:45.099Z,83.22
2017-11-18T04:24:45.164Z,83.31
2017-11-18T04:25:45.130Z,82.74
2017-11-18T04:26:45.153Z,82.84
2017-11-18T04:27:45.158Z,82.74
2017-11-18T04:28:45.172Z,83.4
2017-11-18T04:29:45.201Z,83.12
2017-11-18T04:30:45.207Z,83.4
2017-11-18T04:31:45.217Z,83.5
2017-11-18T04:32:45.236Z,83.31
2017-11-18T04:33:45.255Z,83.31
2017-11-18T04:34:45.272Z,83.12
2017-11-18T04:35:45.277Z,83.31
2017-11-18T04:36:45.293Z,83.4
2017-11-18T04:37:45.310Z,83.4
2017-11-18T04:38:45.323Z,84.36
2017-11-18T04:39:45.389Z,84.03
2017-11-18T04:40:45.353Z,84.17
2017-11-18T04:41:45.111Z,84.69
2017-11-18T04:42:45.383Z,84.59
2017-11-18T04:43:45.141Z,84.31
2017-11-18T04:44:45.429Z,84.88
2017-11-18T04:45:45.427Z,84.98
2017-11-18T04:46:45.440Z,84.98
2017-11-18T04:47:45.457Z,84.78
2017-11-18T04:48:45.470Z,84.69
2017-11-18T04:49:45.226Z,84.88
2017-11-18T04:50:45.502Z,84.41
2017-11-18T04:51:45.514Z,84.36
2017-11-18T04:52:45.533Z,83.69
2017-11-18T04:53:45.546Z,83.5
2017-11-18T04:54:45.607Z,83.5
2017-11-18T04:55:45.577Z,83.88
2017-11-18T04:56:45.589Z,84.17
2017-11-18T04:57:45.603Z,83.31
2017-11-18T04:58:45.361Z,83.4
2017-11-18T04:59:45.631Z,83.12
2017-11-18T05:00:45.390Z,83.59
2017-11-18T05:01:45.665Z,83.31
2017-11-18T05:02:45.418Z,83.12
2017-11-18T05:03:45.706Z,82.65
2017-11-18T05:04:45.711Z,82.84
2017-11-18T05:05:45.724Z,83.69
2017-11-18T05:06:45.740Z,83.5
2017-11-18T05:07:45.495Z,83.31
2017-11-18T05:08:45.770Z,84.12
2017-11-18T05:09:45.789Z,84.22
2017-11-18T05:10:45.540Z,84.88
2017-11-18T05:11:45.557Z,85.17
2017-11-18T05:12:45.572Z,85.74
2017-11-18T05:13:45.580Z,86.02
2017-11-18T05:14:45.856Z,85.74
2017-11-18T05:15:45.869Z,85.83
2017-11-18T05:16:45.880Z,85.64
2017-11-18T05:17:45.897Z,85.55
2017-11-18T05:18:45.912Z,85.64
2017-11-18T05:19:45.927Z,86.11
2017-11-18T05:20:45.684Z,86.3
2017-11-18T05:21:45.699Z,86.02
2017-11-18T05:22:45.967Z,86.02
2017-11-18T05:23:45.986Z,85.83
2017-11-18T05:24:46.006Z,85.83
2017-11-18T05:25:46.014Z,86.4
2017-11-18T05:26:46.034Z,86.02
2017-11-18T05:27:46.088Z,86.3
2017-11-18T05:28:45.799Z,86.4
2017-11-18T05:29:46.070Z,86.4
2017-11-18T05:30:46.084Z,86.21
2017-11-18T05:31:46.118Z,85.74
2017-11-18T05:32:46.116Z,85.83
2017-11-18T05:33:46.132Z,86.4
2017-11-18T05:34:46.140Z,85.83
2017-11-18T05:35:46.168Z,85.93
2017-11-18T05:36:45.911Z,85.74
2017-11-18T05:37:45.927Z,86.02
2017-11-18T05:38:46.207Z,85.55
2017-11-18T05:39:46.211Z,84.98
2017-11-18T05:40:45.978Z,85.26
2017-11-18T05:41:46.254Z,85.74
2017-11-18T05:42:46.269Z,85.55
2017-11-18T05:43:46.271Z,85.55
2017-11-18T05:44:46.340Z,85.74
2017-11-18T05:45:46.296Z,85.74
2017-11-18T05:46:46.319Z,85.36
2017-11-18T05:47:46.336Z,85.26
2017-11-18T05:48:46.343Z,85.36
2017-11-18T05:49:46.097Z,85.74
2017-11-18T05:50:46.111Z,85.17
2017-11-18T05:51:46.388Z,84.98
2017-11-18T05:52:46.405Z,84.88
2017-11-18T05:53:46.425Z,84.69
2017-11-18T05:54:46.429Z,85.17
2017-11-18T05:55:46.185Z,85.93
2017-11-18T05:56:46.201Z,85.83
2017-11-18T05:57:46.473Z,84.98
2017-11-18T05:58:46.489Z,85.26
2017-11-18T05:59:46.501Z,84.98
2017-11-18T06:00:46.569Z,84.88
2017-11-18T06:01:46.272Z,84.78
2017-11-18T06:02:46.558Z,84.88
2017-11-18T06:03:46.558Z,85.36
2017-11-18T06:04:46.574Z,85.64
2017-11-18T06:05:46.585Z,85.36
2017-11-18T06:06:46.602Z,85.45
2017-11-18T06:07:46.612Z,85.55
2017-11-18T06:08:46.630Z,86.4
2017-11-18T06:09:46.646Z,86.21
2017-11-18T06:10:46.662Z,86.21
2017-11-18T06:11:46.415Z,86.49
2017-11-18T06:12:46.690Z,86.59
2017-11-18T06:13:46.449Z,86.21
2017-11-18T06:14:46.757Z,86.78
2017-11-18T06:15:46.522Z,87.63
2017-11-18T06:16:46.748Z,87.82
2017-11-18T06:17:46.766Z,88.35
2017-11-18T06:18:46.782Z,88.29
2017-11-18T06:19:46.790Z,88.35
2017-11-18T06:20:46.820Z,88.29
2017-11-18T06:21:46.817Z,88.39
2017-11-18T06:22:46.864Z,88.39
2017-11-18T06:23:46.589Z,87.92
2017-11-18T06:24:46.860Z,88.01
2017-11-18T06:25:46.619Z,87.92
2017-11-18T06:26:46.630Z,88.1
2017-11-18T06:27:46.905Z,88.58
2017-11-18T06:28:46.929Z,87.92
2017-11-18T06:29:46.933Z,88.77
2017-11-18T06:30:46.996Z,88.2
2017-11-18T06:31:46.960Z,88.1
2017-11-18T06:32:46.995Z,88.96
2017-11-18T06:33:46.991Z,89.53
2017-11-18T06:34:47.005Z,90.34
2017-11-18T06:35:47.019Z,90.43
2017-11-18T06:36:46.772Z,90.62
2017-11-18T06:37:47.047Z,90.72
2017-11-18T06:38:47.063Z,90.91
2017-11-18T06:39:47.080Z,90.91
2017-11-18T06:40:47.104Z,91
2017-11-18T06:41:46.845Z,91
2017-11-18T06:42:47.116Z,91.66
2017-11-18T06:43:47.137Z,91.85
2017-11-18T06:44:47.143Z,91.76
2017-11-18T06:45:47.230Z,91.95
2017-11-18T06:46:47.176Z,91.38
2017-11-18T06:47:46.930Z,91.38
2017-11-18T06:48:46.943Z,91
2017-11-18T06:49:47.218Z,90.57
2017-11-18T06:50:47.227Z,90.29
2017-11-18T06:51:47.249Z,90.48
2017-11-18T06:52:47.000Z,90.15
2017-11-18T06:53:47.270Z,90.48
2017-11-18T06:54:47.285Z,90.62
2017-11-18T06:55:47.044Z,90.53
2017-11-18T06:56:47.316Z,90.67
2017-11-18T06:57:47.331Z,90.91
2017-11-18T06:58:47.350Z,91.09
2017-11-18T06:59:47.363Z,91
2017-11-18T07:00:47.373Z,91
2017-11-18T07:01:47.382Z,91.38
2017-11-18T07:02:47.408Z,90.81
2017-11-18T07:03:47.411Z,91.33
2017-11-18T07:04:47.429Z,90.81
2017-11-18T07:05:47.442Z,91.19
2017-11-18T07:06:47.471Z,90.81
2017-11-18T07:07:47.469Z,91.05
2017-11-18T07:08:47.226Z,90.76
2017-11-18T07:09:47.240Z,90.48
2017-11-18T07:10:47.252Z,90.57
2017-11-18T07:11:47.527Z,90.67
2017-11-18T07:12:47.283Z,91
2017-11-18T07:13:47.551Z,91.05
2017-11-18T07:14:47.569Z,90.67
2017-11-18T07:15:47.325Z,90.29
2017-11-18T07:16:47.594Z,90.29
2017-11-18T07:17:47.608Z,89.81
2017-11-18T07:18:47.626Z,89.62
2017-11-18T07:19:47.693Z,90
2017-11-18T07:20:47.658Z,89.91
2017-11-18T07:21:47.410Z,89.53
2017-11-18T07:22:47.686Z,90.29
2017-11-18T07:23:47.692Z,91.05
2017-11-18T07:24:47.453Z,90.86
2017-11-18T07:25:47.466Z,90.76
2017-11-18T07:26:47.483Z,90.86
2017-11-18T07:27:47.761Z,90.95
2017-11-18T07:28:47.784Z,90.76
2017-11-18T07:29:47.790Z,90.95
2017-11-18T07:30:47.543Z,90.67
2017-11-18T07:31:47.812Z,90.19
2017-11-18T07:32:47.862Z,90.29
2017-11-18T07:33:47.847Z,90.29
2017-11-18T07:34:47.856Z,90.29
2017-11-18T07:35:47.871Z,90.29
2017-11-18T07:36:47.882Z,89.81
2017-11-18T07:37:47.947Z,89.81
2017-11-18T07:38:47.654Z,89.34
2017-11-18T07:39:47.926Z,90
2017-11-18T07:40:47.685Z,89.43
2017-11-18T07:41:47.960Z,89.81
2017-11-18T07:42:47.975Z,89.53
2017-11-18T07:43:47.726Z,90.1
2017-11-18T07:44:47.743Z,89.34
2017-11-18T07:45:48.013Z,89.62
2017-11-18T07:46:47.773Z,89.81
2017-11-18T07:47:48.050Z,89.53
2017-11-18T07:48:47.799Z,89.43
2017-11-18T07:49:48.074Z,89.53
2017-11-18T07:50:48.085Z,89.43
2017-11-18T07:51:48.232Z,89.25
2017-11-18T07:52:47.862Z,89.06
2017-11-18T07:53:48.138Z,88.87
2017-11-18T07:54:48.145Z,89.2
2017-11-18T07:55:47.903Z,88.87
2017-11-18T07:56:47.966Z,88.81
2017-11-18T07:57:48.202Z,88.43
2017-11-18T07:58:48.202Z,87.96
2017-11-18T07:59:48.222Z,87.96
2017-11-18T08:00:47.975Z,88.81
2017-11-18T08:01:48.251Z,88.62
2017-11-18T08:02:48.275Z,88.72
2017-11-18T08:03:48.021Z,88.62
2017-11-18T08:04:48.297Z,88.72
2017-11-18T08:05:48.307Z,88.87
2017-11-18T08:06:48.324Z,89.25
2017-11-18T08:07:48.337Z,89.62
2017-11-18T08:08:48.354Z,89.72
2017-11-18T08:09:48.379Z,89.06
2017-11-18T08:10:48.123Z,89.25
2017-11-18T08:11:48.444Z,89.53
2017-11-18T08:12:48.408Z,90
2017-11-18T08:13:48.425Z,89.43
2017-11-18T08:14:48.453Z,90.29
2017-11-18T08:15:48.453Z,89.72
2017-11-18T08:16:48.467Z,89.81
2017-11-18T08:17:48.480Z,90.1
2017-11-18T08:18:48.497Z,90.29
2017-11-18T08:19:48.252Z,90.29
2017-11-18T08:20:48.266Z,90.57
2017-11-18T08:21:48.537Z,90.29
2017-11-18T08:22:48.558Z,89.81
2017-11-18T08:23:48.574Z,89.43
2017-11-18T08:24:48.583Z,89.43
2017-11-18T08:25:48.339Z,89.62
2017-11-18T08:26:48.663Z,89.06
2017-11-18T08:27:48.625Z,89.81
2017-11-18T08:28:48.642Z,89.53
2017-11-18T08:29:48.661Z,90.29
2017-11-18T08:30:48.678Z,90.1
2017-11-18T08:31:48.430Z,89.53
2017-11-18T08:32:48.703Z,90.19
2017-11-18T08:33:48.712Z,89.91
2017-11-18T08:34:48.476Z,89.81
2017-11-18T08:35:48.746Z,89.53
2017-11-18T08:36:48.757Z,89.53
2017-11-18T08:37:48.774Z,89.53
2017-11-18T08:38:48.791Z,89.53
2017-11-18T08:39:48.811Z,89.15
2017-11-18T08:40:48.818Z,90
2017-11-18T08:41:48.828Z,90.38
2017-11-18T08:42:48.849Z,90.29
2017-11-18T08:43:48.601Z,90.48
2017-11-18T08:44:48.867Z,90.48
2017-11-18T08:45:48.903Z,90.57
2017-11-18T08:46:48.911Z,90.1
2017-11-18T08:47:48.656Z,90.29
2017-11-18T08:48:48.936Z,90.57
2017-11-18T08:49:48.685Z,91.05
2017-11-18T08:50:48.959Z,91.05
2017-11-18T08:51:48.976Z,90.29
2017-11-18T08:52:48.730Z,90.29
2017-11-18T08:53:49.007Z,89.91
2017-11-18T08:54:48.760Z,89.86
2017-11-18T08:55:49.038Z,89.48
2017-11-18T08:56:48.788Z,90.33
2017-11-18T08:57:48.898Z,89.34
2017-11-18T08:58:49.073Z,89.72
2017-11-18T08:59:48.836Z,90.19
2017-11-18T09:00:48.854Z,89.76
2017-11-18T09:01:48.859Z,89.25
2017-11-18T09:02:49.132Z,89.1
2017-11-18T09:03:49.152Z,88.34
2017-11-18T09:04:48.904Z,88.43
2017-11-18T09:05:48.918Z,88.15
2017-11-18T09:06:48.937Z,88.24
2017-11-18T09:07:49.213Z,87.68
2017-11-18T09:08:48.967Z,87.68
2017-11-18T09:09:49.233Z,87.39
2017-11-18T09:10:49.245Z,87.58
2017-11-18T09:11:49.263Z,87.2
2017-11-18T09:12:49.329Z,87.53
2017-11-18T09:13:49.292Z,86.91
2017-11-18T09:14:49.307Z,87.49
2017-11-18T09:15:49.328Z,87.96
2017-11-18T09:16:49.335Z,87.87
2017-11-18T09:17:49.363Z,87.3
2017-11-18T09:18:49.378Z,87.68
2017-11-18T09:19:49.379Z,87.68
2017-11-18T09:20:49.406Z,87.11
2017-11-18T09:21:49.151Z,87.01
2017-11-18T09:22:49.424Z,86.82
2017-11-18T09:23:49.440Z,87.2
2017-11-18T09:24:49.465Z,87.58
2017-11-18T09:25:49.467Z,88.62
2017-11-18T09:26:49.483Z,88.62
2017-11-18T09:27:49.555Z,88.53
2017-11-18T09:28:49.514Z,88.72
2017-11-18T09:29:49.273Z,87.96
2017-11-18T09:30:49.542Z,87.3
2017-11-18T09:31:49.563Z,87.2
2017-11-18T09:32:49.577Z,87.39
2017-11-18T09:33:49.588Z,87.49
2017-11-18T09:34:49.344Z,86.87
2017-11-18T09:35:49.615Z,86.68
2017-11-18T09:36:49.629Z,86.82
2017-11-18T09:37:49.390Z,87.77
2017-11-18T09:38:49.404Z,87.49
2017-11-18T09:39:49.417Z,87.58
2017-11-18T09:40:49.692Z,87.49
2017-11-18T09:41:49.447Z,87.58
2017-11-18T09:42:49.510Z,87.96
2017-11-18T09:43:49.733Z,88.34
2017-11-18T09:44:49.493Z,88.24
2017-11-18T09:45:49.765Z,88.06
2017-11-18T09:46:49.786Z,88.15
2017-11-18T09:47:49.796Z,88.06
2017-11-18T09:48:49.810Z,88.24
2017-11-18T09:49:49.822Z,88.24
2017-11-18T09:50:49.845Z,87.49
2017-11-18T09:51:49.853Z,87.2
2017-11-18T09:52:49.868Z,87.2
2017-11-18T09:53:49.886Z,87.49
2017-11-18T09:54:49.900Z,87.77
2017-11-18T09:55:49.911Z,88.81
2017-11-18T09:56:49.927Z,88.53
2017-11-18T09:57:49.992Z,88.43
2017-11-18T09:58:49.973Z,89.29
2017-11-18T09:59:49.969Z,89.67
2017-11-18T10:00:49.993Z,89.72
2017-11-18T10:01:49.998Z,90.05
2017-11-18T10:02:49.759Z,89.81
2017-11-18T10:03:50.056Z,89.62
2017-11-18T10:04:50.045Z,89.2
2017-11-18T10:05:50.072Z,89.67
2017-11-18T10:06:49.816Z,89.2
2017-11-18T10:07:49.829Z,88.81
2017-11-18T10:08:50.118Z,88.91
2017-11-18T10:09:50.117Z,89.67
2017-11-18T10:10:49.873Z,89.86
2017-11-18T10:11:49.887Z,89.39
2017-11-18T10:12:50.214Z,89.76
2017-11-18T10:13:50.177Z,89.95
2017-11-18T10:14:50.192Z,89.48
2017-11-18T10:15:50.230Z,89.95
2017-11-18T10:16:50.221Z,90.29
2017-11-18T10:17:50.235Z,90.33
2017-11-18T10:18:50.253Z,90.48
2017-11-18T10:19:50.274Z,91.14
2017-11-18T10:20:50.279Z,90.76
2017-11-18T10:21:50.329Z,91.24
2017-11-18T10:22:50.309Z,90.86
2017-11-18T10:23:50.335Z,91.09
2017-11-18T10:24:50.336Z,91.42
2017-11-18T10:25:50.349Z,91.61
2017-11-18T10:26:50.384Z,91.99
2017-11-18T10:27:50.377Z,91.71
2017-11-18T10:28:50.399Z,91.71
2017-11-18T10:29:50.413Z,91.8
2017-11-18T10:30:50.425Z,92.28
2017-11-18T10:31:50.487Z,92.09
2017-11-18T10:32:50.195Z,91.9
2017-11-18T10:33:50.464Z,91.99
2017-11-18T10:34:50.489Z,92.47
2017-11-18T10:35:50.238Z,92.66
2017-11-18T10:36:50.542Z,91.99
2017-11-18T10:37:50.266Z,91.71
2017-11-18T10:38:50.533Z,91.99
2017-11-18T10:39:50.555Z,91.66
2017-11-18T10:40:50.307Z,91.38
2017-11-18T10:41:50.590Z,91.38
2017-11-18T10:42:50.597Z,91.85
2017-11-18T10:43:50.612Z,92.14
2017-11-18T10:44:50.647Z,92.04
2017-11-18T10:45:50.641Z,92.04
2017-11-18T10:46:50.445Z,91.85
2017-11-18T10:47:50.409Z,92.14
2017-11-18T10:48:50.681Z,92.28
2017-11-18T10:49:50.697Z,93.04
2017-11-18T10:50:50.723Z,92.61
2017-11-18T10:51:50.742Z,93.04
2017-11-18T10:52:50.748Z,92.85
2017-11-18T10:53:50.771Z,93.27
2017-11-18T10:54:50.771Z,92.61
2017-11-18T10:55:50.779Z,93.08
2017-11-18T10:56:50.798Z,92.33
2017-11-18T10:57:50.809Z,92.52
2017-11-18T10:58:50.571Z,92.85
2017-11-18T10:59:50.840Z,92.61
2017-11-18T11:00:50.854Z,92.52
2017-11-18T11:01:50.661Z,92.94
2017-11-18T11:02:50.624Z,92.8
2017-11-18T11:03:50.900Z,92.14
2017-11-18T11:04:50.915Z,92.52
2017-11-18T11:05:50.669Z,91.75
2017-11-18T11:06:50.685Z,92.04
2017-11-18T11:07:50.958Z,91.47
2017-11-18T11:08:50.976Z,91.47
2017-11-18T11:09:50.984Z,90.62
2017-11-18T11:10:51.018Z,90.33
2017-11-18T11:11:51.018Z,90.33
2017-11-18T11:12:51.031Z,90.33
2017-11-18T11:14:16.739Z,90.33
2017-11-18T11:15:16.736Z,90.71
2017-11-18T11:15:51.077Z,90.19
2017-11-18T11:16:51.093Z,89.62
2017-11-18T11:17:50.849Z,89.53
2017-11-18T11:18:50.862Z,89.53
2017-11-18T11:19:51.388Z,89.9
2017-11-18T11:20:51.155Z,89.86
2017-11-18T11:22:10.373Z,89.67
2017-11-18T11:22:50.924Z,89.48
2017-11-18T11:23:50.941Z,89.9
2017-11-18T11:24:51.213Z,89.33
2017-11-18T11:25:51.225Z,88.95
2017-11-18T11:26:51.241Z,89.53
2017-11-18T11:27:51.263Z,89.48
2017-11-18T11:28:51.273Z,89.58
2017-11-18T11:29:51.287Z,89.48
2017-11-18T11:30:51.045Z,89.33
2017-11-18T11:31:51.322Z,89.05
2017-11-18T11:32:51.334Z,88.39
2017-11-18T11:33:51.351Z,88.53
2017-11-18T11:34:51.513Z,88.91
2017-11-18T11:35:51.120Z,88.91
2017-11-18T11:36:51.394Z,88.81
2017-11-18T11:37:51.447Z,89.2
2017-11-18T11:38:51.459Z,89
2017-11-18T11:39:51.442Z,88.34
2017-11-18T11:40:51.454Z,88.81
2017-11-18T11:41:51.470Z,89.29
2017-11-18T11:42:51.485Z,89.1
2017-11-18T11:43:51.243Z,88.81
2017-11-18T11:44:51.515Z,88.86
2017-11-18T11:45:51.274Z,89
2017-11-18T11:46:51.542Z,88.57
2017-11-18T11:47:51.563Z,87.72
2017-11-18T11:48:51.319Z,87.91
2017-11-18T11:49:51.639Z,88.15
2017-11-18T11:50:51.352Z,88.43
2017-11-18T11:51:51.624Z,88.72
2017-11-18T11:52:51.648Z,88.91
2017-11-18T11:53:51.657Z,89.1
2017-11-18T11:54:51.665Z,88.24
2017-11-18T11:55:51.685Z,88.62
2017-11-18T11:56:51.702Z,88.62
2017-11-18T11:57:51.462Z,88.24
2017-11-18T11:58:51.470Z,88.81
2017-11-18T11:59:51.751Z,88.53
2017-11-18T12:00:51.777Z,87.96
2017-11-18T12:01:51.781Z,87.34
2017-11-18T12:02:51.796Z,87.62
2017-11-18T12:03:51.816Z,87.05
2017-11-18T12:04:51.615Z,86.68
2017-11-18T12:05:51.580Z,87.43
2017-11-18T12:06:51.858Z,87.72
2017-11-18T12:07:51.611Z,87.62
2017-11-18T12:08:51.887Z,87.62
2017-11-18T12:09:51.959Z,87.24
2017-11-18T12:10:51.918Z,87.15
2017-11-18T12:11:51.940Z,87.43
2017-11-18T12:12:51.947Z,86.87
2017-11-18T12:13:51.961Z,86.77
2017-11-18T12:14:51.716Z,86.58
2017-11-18T12:15:52.002Z,86.68
2017-11-18T12:16:52.006Z,86.39
2017-11-18T12:17:52.022Z,85.63
2017-11-18T12:18:52.038Z,85.63
2017-11-18T12:19:52.120Z,85.68
2017-11-18T12:20:52.069Z,86.01
2017-11-18T12:21:52.086Z,86.01
2017-11-18T12:22:51.845Z,85.82
2017-11-18T12:23:52.113Z,85.72
2017-11-18T12:24:51.874Z,85.91
2017-11-18T12:25:52.160Z,85.91
2017-11-18T12:26:52.167Z,85.53
2017-11-18T12:27:52.183Z,85.72
2017-11-18T12:28:52.193Z,85.82
2017-11-18T12:29:51.954Z,85.82
2017-11-18T12:30:52.228Z,85.82
2017-11-18T12:31:52.243Z,85.82
2017-11-18T12:32:52.256Z,85.72
2017-11-18T12:33:52.014Z,85.01
2017-11-18T12:34:52.181Z,85.01
2017-11-18T12:35:52.305Z,85.06
2017-11-18T12:36:52.318Z,84.68
2017-11-18T12:37:52.338Z,85.06
2017-11-18T12:38:52.364Z,85.16
2017-11-18T12:39:52.107Z,84.91
2017-11-18T12:40:52.125Z,84.34
2017-11-18T12:41:52.145Z,84.25
2017-11-18T12:42:52.156Z,83.68
2017-11-18T12:43:52.439Z,83.2
2017-11-18T12:44:52.191Z,83.2
2017-11-18T12:45:52.465Z,82.92
2017-11-18T12:46:52.225Z,83.68
2017-11-18T12:47:52.498Z,83.26
2017-11-18T12:48:52.516Z,83.39
2017-11-18T12:49:52.586Z,83.59
2017-11-18T12:50:52.546Z,83.11
2017-11-18T12:51:52.305Z,83.78
2017-11-18T12:52:52.576Z,83.45
2017-11-18T12:53:52.596Z,83.59
2017-11-18T12:54:52.609Z,83.49
2017-11-18T12:55:52.627Z,82.92